sensor_id;sensor_type;location;lat;lon;timestamp;pressure;altitude;pressure_sealevel;temperature;humidity
45789;BME280;31492;54.856;26.318;2023-04-08T00:01:34;1030.6;;;10.1;65.8
45789;BME280;31492;54.856;26.318;2023-04-08T00:06:02;1030.7;;;10.1;65.8
45789;BME280;31492;54.856;26.318;2023-04-08T00:10:56;1030.7;;;10.1;65.6
45789;BME280;31492;54.856;26.318;2023-04-08T00:16:18;1030.7;;;10;65.9
45789;BME280;31492;54.856;26.318;2023-04-08T00:21:06;1030.7;;;9.9;65.9
45789;BME280;31492;54.856;26.318;2023-04-08T00:26:20;1030.7;;;9.9;65.8
45789;BME280;31492;54.856;26.318;2023-04-08T00:30:56;1030.7;;;9.8;65.8
45789;BME280;31492;54.856;26.318;2023-04-08T00:35:56;1030.7;;;9.8;65.8
45789;BME280;31492;54.856;26.318;2023-04-08T00:40:56;1030.7;;;9.8;66.3
45789;BME280;31492;54.856;26.318;2023-04-08T00:45:56;1030.7;;;9.6;66.6
45789;BME280;31492;54.856;26.318;2023-04-08T00:51:08;1030.7;;;9.6;66.4
45789;BME280;31492;54.856;26.318;2023-04-08T00:55:56;1030.7;;;9.6;66.2
45789;BME280;31492;54.856;26.318;2023-04-08T01:01:09;1030.7;;;9.6;66.2
45789;BME280;31492;54.856;26.318;2023-04-08T01:06:10;1030.7;;;9.5;66.3
45789;BME280;31492;54.856;26.318;2023-04-08T01:11:07;1030.7;;;9.5;66.3
45789;BME280;31492;54.856;26.318;2023-04-08T01:15:56;1030.7;;;9.4;66.3
45789;BME280;31492;54.856;26.318;2023-04-08T01:21:16;1030.7;;;9.4;66
45789;BME280;31492;54.856;26.318;2023-04-08T01:26:09;1030.7;;;9.4;66
45789;BME280;31492;54.856;26.318;2023-04-08T01:30:57;1030.7;;;9.3;66.2
45789;BME280;31492;54.856;26.318;2023-04-08T01:36:06;1030.7;;;9.1;66.9
45789;BME280;31492;54.856;26.318;2023-04-08T01:41:08;1030.7;;;9;67.3
45789;BME280;31492;54.856;26.318;2023-04-08T01:46:02;1030.7;;;8.9;67.7
45789;BME280;31492;54.856;26.318;2023-04-08T01:51:14;1030.8;;;8.8;67.7
45789;BME280;31492;54.856;26.318;2023-04-08T01:55:57;1030.8;;;8.8;67.3
45789;BME280;31492;54.856;26.318;2023-04-08T02:00:56;1030.8;;;8.8;67.1
45789;BME280;31492;54.856;26.318;2023-04-08T02:06:08;1030.8;;;8.7;67.2
45789;BME280;31492;54.856;26.318;2023-04-08T02:11:02;1030.8;;;8.7;67
45789;BME280;31492;54.856;26.318;2023-04-08T02:16:13;1030.8;;;8.7;67.1
45789;BME280;31492;54.856;26.318;2023-04-08T02:21:04;1030.8;;;8.6;66.9
45789;BME280;31492;54.856;26.318;2023-04-08T02:26:11;1030.8;;;8.6;66.8
45789;BME280;31492;54.856;26.318;2023-04-08T02:31:20;1030.8;;;8.5;66.8
45789;BME280;31492;54.856;26.318;2023-04-08T02:36:03;1030.9;;;8.4;67
45789;BME280;31492;54.856;26.318;2023-04-08T02:40:57;1030.9;;;8.4;67
45789;BME280;31492;54.856;26.318;2023-04-08T02:45:57;1030.8;;;8.3;66.9
45789;BME280;31492;54.856;26.318;2023-04-08T02:51:08;1030.8;;;8.3;67
45789;BME280;31492;54.856;26.318;2023-04-08T02:56:09;1030.8;;;8.3;66.9
45789;BME280;31492;54.856;26.318;2023-04-08T03:01:02;1030.8;;;8.3;66.9
45789;BME280;31492;54.856;26.318;2023-04-08T03:06:17;1030.8;;;8.1;67.1
45789;BME280;31492;54.856;26.318;2023-04-08T03:11:02;1030.9;;;8.1;67.1
45789;BME280;31492;54.856;26.318;2023-04-08T03:16:07;1030.9;;;8;67.4
45789;BME280;31492;54.856;26.318;2023-04-08T03:20:56;1030.9;;;7.9;67.7
45789;BME280;31492;54.856;26.318;2023-04-08T03:25:56;1031;;;7.8;68.2
45789;BME280;31492;54.856;26.318;2023-04-08T03:31:31;1031;;;7.8;68.1
45789;BME280;31492;54.856;26.318;2023-04-08T03:35:56;1031.1;;;7.8;68.5
45789;BME280;31492;54.856;26.318;2023-04-08T03:41:18;1031.1;;;7.7;69
45789;BME280;31492;54.856;26.318;2023-04-08T03:46:08;1031.2;;;7.6;69.4
45789;BME280;31492;54.856;26.318;2023-04-08T03:51:16;1031.2;;;7.5;69.7
45789;BME280;31492;54.856;26.318;2023-04-08T03:55:57;1031.2;;;7.5;69.8
45789;BME280;31492;54.856;26.318;2023-04-08T04:00:56;1031.2;;;7.5;70.4
45789;BME280;31492;54.856;26.318;2023-04-08T04:06:09;1031.3;;;7.5;70.9
45789;BME280;31492;54.856;26.318;2023-04-08T04:11:19;1031.3;;;7.5;71
45789;BME280;31492;54.856;26.318;2023-04-08T04:16:03;1031.4;;;7.6;70.3
45789;BME280;31492;54.856;26.318;2023-04-08T04:20:56;1031.4;;;7.8;69.9
45789;BME280;31492;54.856;26.318;2023-04-08T04:26:11;1031.5;;;7.9;69.1
45789;BME280;31492;54.856;26.318;2023-04-08T04:31:16;1031.5;;;8;68.8
45789;BME280;31492;54.856;26.318;2023-04-08T04:36:21;1031.5;;;8.1;68.4
45789;BME280;31492;54.856;26.318;2023-04-08T04:41:16;1031.5;;;8.1;68.2
45789;BME280;31492;54.856;26.318;2023-04-08T04:45:56;1031.5;;;8.2;68.4
45789;BME280;31492;54.856;26.318;2023-04-08T04:50:57;1031.6;;;8.3;68.4
45789;BME280;31492;54.856;26.318;2023-04-08T04:56:08;1031.6;;;8.4;68.1
45789;BME280;31492;54.856;26.318;2023-04-08T05:01:08;1031.6;;;8.6;68
45789;BME280;31492;54.856;26.318;2023-04-08T05:06:10;1031.6;;;8.8;67.8
45789;BME280;31492;54.856;26.318;2023-04-08T05:11:16;1031.6;;;8.9;68
45789;BME280;31492;54.856;26.318;2023-04-08T05:16:03;1031.6;;;9.1;68.3
45789;BME280;31492;54.856;26.318;2023-04-08T05:21:07;1031.7;;;9.2;68.2
45789;BME280;31492;54.856;26.318;2023-04-08T05:25:57;1031.6;;;9.4;68.1
45789;BME280;31492;54.856;26.318;2023-04-08T05:31:06;1031.6;;;9.5;68.2
45789;BME280;31492;54.856;26.318;2023-04-08T05:36:09;1031.7;;;9.7;68.1
45789;BME280;31492;54.856;26.318;2023-04-08T05:41:03;1031.7;;;9.9;68.2
45789;BME280;31492;54.856;26.318;2023-04-08T05:46:13;1031.6;;;10.1;68.5
45789;BME280;31492;54.856;26.318;2023-04-08T05:50:57;1031.7;;;10.2;68.3
45789;BME280;31492;54.856;26.318;2023-04-08T05:55:57;1031.7;;;10.3;68.4
45789;BME280;31492;54.856;26.318;2023-04-08T06:01:21;1031.7;;;10.4;68.9
45789;BME280;31492;54.856;26.318;2023-04-08T06:05:57;1031.7;;;10.6;69.1
45789;BME280;31492;54.856;26.318;2023-04-08T06:11:13;1031.8;;;10.8;68.8
45789;BME280;31492;54.856;26.318;2023-04-08T06:15:57;1031.8;;;11;68.5
45789;BME280;31492;54.856;26.318;2023-04-08T06:20:57;1031.8;;;11.2;68.1
45789;BME280;31492;54.856;26.318;2023-04-08T06:26:11;1031.8;;;11.4;67.8
45789;BME280;31492;54.856;26.318;2023-04-08T06:31:15;1031.7;;;11.6;67.2
45789;BME280;31492;54.856;26.318;2023-04-08T06:36:13;1031.7;;;11.9;66.7
45789;BME280;31492;54.856;26.318;2023-04-08T06:41:09;1031.7;;;12.1;66.2
45789;BME280;31492;54.856;26.318;2023-04-08T06:45:57;1031.7;;;12.4;65.3
45789;BME280;31492;54.856;26.318;2023-04-08T06:51:21;1031.7;;;12.9;64.6
45789;BME280;31492;54.856;26.318;2023-04-08T06:55:57;1031.7;;;13.4;63.3
45789;BME280;31492;54.856;26.318;2023-04-08T07:01:13;1031.8;;;13.9;62.1
45789;BME280;31492;54.856;26.318;2023-04-08T07:05:57;1031.8;;;14.3;61
45789;BME280;31492;54.856;26.318;2023-04-08T07:10:57;1031.8;;;14.4;60.4
45789;BME280;31492;54.856;26.318;2023-04-08T07:16:13;1031.8;;;14.8;60.2
45789;BME280;31492;54.856;26.318;2023-04-08T07:21:03;1031.8;;;15.4;58.7
45789;BME280;31492;54.856;26.318;2023-04-08T07:26:00;1031.8;;;15.7;56.9
45789;BME280;31492;54.856;26.318;2023-04-08T07:31:25;1031.8;;;15.8;56.5
45789;BME280;31492;54.856;26.318;2023-04-08T07:35:57;1031.8;;;16.2;56
45789;BME280;31492;54.856;26.318;2023-04-08T07:41:23;1031.8;;;16.4;55.3
45789;BME280;31492;54.856;26.318;2023-04-08T07:45:59;1031.8;;;16.6;54.8
45789;BME280;31492;54.856;26.318;2023-04-08T07:51:07;1031.7;;;17;53.7
45789;BME280;31492;54.856;26.318;2023-04-08T07:55:57;1031.7;;;17.5;52.9
45789;BME280;31492;54.856;26.318;2023-04-08T08:01:17;1031.7;;;18;52
45789;BME280;31492;54.856;26.318;2023-04-08T08:05:57;1031.7;;;18.4;51
45789;BME280;31492;54.856;26.318;2023-04-08T08:11:15;1031.7;;;18.7;49.1
45789;BME280;31492;54.856;26.318;2023-04-08T08:16:07;1031.7;;;18.9;48.5
45789;BME280;31492;54.856;26.318;2023-04-08T08:20:57;1031.6;;;19.4;48.5
45789;BME280;31492;54.856;26.318;2023-04-08T08:25:58;1031.6;;;19.7;47
45789;BME280;31492;54.856;26.318;2023-04-08T08:30:57;1031.6;;;19.9;45.9
45789;BME280;31492;54.856;26.318;2023-04-08T08:35:57;1031.7;;;20.2;45.7
45789;BME280;31492;54.856;26.318;2023-04-08T08:41:07;1031.7;;;20.4;44.1
45789;BME280;31492;54.856;26.318;2023-04-08T08:46:07;1031.7;;;20.4;43.9
45789;BME280;31492;54.856;26.318;2023-04-08T08:51:11;1031.7;;;20.3;43
45789;BME280;31492;54.856;26.318;2023-04-08T08:56:11;1031.6;;;20.5;43.8
45789;BME280;31492;54.856;26.318;2023-04-08T09:01:38;1031.6;;;21;42.8
45789;BME280;31492;54.856;26.318;2023-04-08T09:05:57;1031.6;;;21.1;42.3
45789;BME280;31492;54.856;26.318;2023-04-08T09:11:09;1031.5;;;21.5;42.4
45789;BME280;31492;54.856;26.318;2023-04-08T09:16:13;1031.5;;;22;41.3
45789;BME280;31492;54.856;26.318;2023-04-08T09:21:23;1031.5;;;22.2;40.2
45789;BME280;31492;54.856;26.318;2023-04-08T09:26:00;1031.4;;;22.7;40.1
45789;BME280;31492;54.856;26.318;2023-04-08T09:30:57;1031.4;;;23;38.3
45789;BME280;31492;54.856;26.318;2023-04-08T09:35:57;1031.5;;;23.2;38.3
45789;BME280;31492;54.856;26.318;2023-04-08T09:41:10;1031.4;;;23.4;37.4
45789;BME280;31492;54.856;26.318;2023-04-08T09:45:57;1031.4;;;23.5;37.3
45789;BME280;31492;54.856;26.318;2023-04-08T09:51:13;1031.4;;;23.6;36.8
45789;BME280;31492;54.856;26.318;2023-04-08T09:56:35;1031.4;;;23.9;36.7
45789;BME280;31492;54.856;26.318;2023-04-08T10:01:26;1031.4;;;24.3;35.9
45789;BME280;31492;54.856;26.318;2023-04-08T10:05:57;1031.3;;;24.5;34.9
45789;BME280;31492;54.856;26.318;2023-04-08T10:11:13;1031.3;;;24.5;34.5
45789;BME280;31492;54.856;26.318;2023-04-08T10:16:31;1031.2;;;24.7;34.3
45789;BME280;31492;54.856;26.318;2023-04-08T10:21:15;1031.3;;;24.9;34
45789;BME280;31492;54.856;26.318;2023-04-08T10:26:28;1031.3;;;24.9;33.7
45789;BME280;31492;54.856;26.318;2023-04-08T10:31:05;1031.3;;;24.8;34
45789;BME280;31492;54.856;26.318;2023-04-08T10:35:58;1031.3;;;24.7;33.9
45789;BME280;31492;54.856;26.318;2023-04-08T10:41:17;1031.2;;;24.4;34
45789;BME280;31492;54.856;26.318;2023-04-08T10:46:26;1031.2;;;23.9;33.8
45789;BME280;31492;54.856;26.318;2023-04-08T10:51:25;1031.2;;;23.8;34.5
45789;BME280;31492;54.856;26.318;2023-04-08T10:56:29;1031.2;;;23.8;34.4
45789;BME280;31492;54.856;26.318;2023-04-08T11:01:01;1031.1;;;23.9;34.7
45789;BME280;31492;54.856;26.318;2023-04-08T11:06:35;1031.1;;;23.9;34.7
45789;BME280;31492;54.856;26.318;2023-04-08T11:10:57;1031.1;;;24.2;34.5
45789;BME280;31492;54.856;26.318;2023-04-08T11:15:57;1031;;;24.3;34.3
45789;BME280;31492;54.856;26.318;2023-04-08T11:21:09;1031;;;24.2;33.6
45789;BME280;31492;54.856;26.318;2023-04-08T11:26:09;1031;;;24.1;34.2
45789;BME280;31492;54.856;26.318;2023-04-08T11:31:09;1031;;;24.3;34
45789;BME280;31492;54.856;26.318;2023-04-08T11:35:59;1031;;;24.3;34
45789;BME280;31492;54.856;26.318;2023-04-08T11:40:57;1031;;;24.2;33.7
45789;BME280;31492;54.856;26.318;2023-04-08T11:45:57;1031;;;23.9;34.1
45789;BME280;31492;54.856;26.318;2023-04-08T11:51:11;1031;;;23.9;33.9
45789;BME280;31492;54.856;26.318;2023-04-08T11:56:14;1031;;;23.5;34.6
45789;BME280;31492;54.856;26.318;2023-04-08T12:00:57;1031;;;23.3;34.6
45789;BME280;31492;54.856;26.318;2023-04-08T12:06:25;1031;;;23;35.2
45789;BME280;31492;54.856;26.318;2023-04-08T12:11:09;1030.9;;;23.2;35.4
45789;BME280;31492;54.856;26.318;2023-04-08T12:15:57;1030.8;;;23.5;34.9
45789;BME280;31492;54.856;26.318;2023-04-08T12:21:03;1030.8;;;23.6;34.7
45789;BME280;31492;54.856;26.318;2023-04-08T12:25:57;1030.8;;;23.8;34.8
45789;BME280;31492;54.856;26.318;2023-04-08T12:31:09;1030.7;;;23.6;34.2
45789;BME280;31492;54.856;26.318;2023-04-08T12:36:09;1030.7;;;23.1;34.6
45789;BME280;31492;54.856;26.318;2023-04-08T12:40:57;1030.6;;;22.9;34.7
45789;BME280;31492;54.856;26.318;2023-04-08T12:46:15;1030.6;;;22.7;35
45789;BME280;31492;54.856;26.318;2023-04-08T12:50:57;1030.6;;;22.6;35.2
45789;BME280;31492;54.856;26.318;2023-04-08T12:55:57;1030.5;;;22.7;35.6
45789;BME280;31492;54.856;26.318;2023-04-08T13:00:57;1030.4;;;23;35.7
45789;BME280;31492;54.856;26.318;2023-04-08T13:05:57;1030.4;;;23.1;34.9
45789;BME280;31492;54.856;26.318;2023-04-08T13:10:57;1030.4;;;23.4;35
45789;BME280;31492;54.856;26.318;2023-04-08T13:15:57;1030.4;;;23.2;34.8
45789;BME280;31492;54.856;26.318;2023-04-08T13:21:09;1030.4;;;22.6;35.2
45789;BME280;31492;54.856;26.318;2023-04-08T13:25:57;1030.4;;;22.4;36.2
45789;BME280;31492;54.856;26.318;2023-04-08T13:30:57;1030.3;;;22.1;35.8
45789;BME280;31492;54.856;26.318;2023-04-08T13:35:57;1030.3;;;21.6;36.4
45789;BME280;31492;54.856;26.318;2023-04-08T13:40:57;1030.3;;;21.3;37
45789;BME280;31492;54.856;26.318;2023-04-08T13:45:57;1030.3;;;21.1;37.2
45789;BME280;31492;54.856;26.318;2023-04-08T13:50:57;1030.2;;;21.1;37.2
45789;BME280;31492;54.856;26.318;2023-04-08T13:56:23;1030.2;;;21;37.4
45789;BME280;31492;54.856;26.318;2023-04-08T14:01:03;1030.2;;;21;37.3
45789;BME280;31492;54.856;26.318;2023-04-08T14:05:57;1030.1;;;21;37.2
45789;BME280;31492;54.856;26.318;2023-04-08T14:11:09;1030;;;20.8;37
45789;BME280;31492;54.856;26.318;2023-04-08T14:15:57;1030;;;20.6;37.3
45789;BME280;31492;54.856;26.318;2023-04-08T14:20:57;1030;;;20.5;37.9
45789;BME280;31492;54.856;26.318;2023-04-08T14:26:17;1030;;;20.3;38.2
45789;BME280;31492;54.856;26.318;2023-04-08T14:31:13;1029.9;;;20.1;38.2
45789;BME280;31492;54.856;26.318;2023-04-08T14:36:09;1029.9;;;19.9;39.2
45789;BME280;31492;54.856;26.318;2023-04-08T14:41:09;1029.9;;;19.7;39.4
45789;BME280;31492;54.856;26.318;2023-04-08T14:45:57;1029.9;;;19.5;39.4
45789;BME280;31492;54.856;26.318;2023-04-08T14:51:17;1029.9;;;19.3;39.8
45789;BME280;31492;54.856;26.318;2023-04-08T14:55:57;1029.8;;;19.1;40.5
45789;BME280;31492;54.856;26.318;2023-04-08T15:01:09;1029.8;;;19;41.1
45789;BME280;31492;54.856;26.318;2023-04-08T15:05:57;1029.8;;;18.8;40.3
45789;BME280;31492;54.856;26.318;2023-04-08T15:10:57;1029.8;;;18.7;40.4
45789;BME280;31492;54.856;26.318;2023-04-08T15:16:15;1029.8;;;18.6;41.1
45789;BME280;31492;54.856;26.318;2023-04-08T15:21:13;1029.8;;;18.4;41.6
45789;BME280;31492;54.856;26.318;2023-04-08T15:25:57;1029.7;;;18.2;42
45789;BME280;31492;54.856;26.318;2023-04-08T15:30:57;1029.7;;;18.1;42.7
45789;BME280;31492;54.856;26.318;2023-04-08T15:36:13;1029.7;;;18;42.9
45789;BME280;31492;54.856;26.318;2023-04-08T15:41:03;1029.8;;;17.8;43.8
45789;BME280;31492;54.856;26.318;2023-04-08T15:46:23;1029.8;;;17.7;43.6
45789;BME280;31492;54.856;26.318;2023-04-08T15:51:11;1029.9;;;17.6;44.2
45789;BME280;31492;54.856;26.318;2023-04-08T15:55:57;1029.9;;;17.6;44.4
45789;BME280;31492;54.856;26.318;2023-04-08T16:01:25;1029.9;;;17.5;45
45789;BME280;31492;54.856;26.318;2023-04-08T16:06:15;1029.9;;;17.4;45.4
45789;BME280;31492;54.856;26.318;2023-04-08T16:10:58;1029.9;;;17.2;45.9
45789;BME280;31492;54.856;26.318;2023-04-08T16:16:09;1030;;;17.1;46.5
45789;BME280;31492;54.856;26.318;2023-04-08T16:21:15;1030;;;16.9;46.7
45789;BME280;31492;54.856;26.318;2023-04-08T16:25:57;1030.1;;;16.8;46.7
45789;BME280;31492;54.856;26.318;2023-04-08T16:30:57;1030.1;;;16.7;47.5
45789;BME280;31492;54.856;26.318;2023-04-08T16:36:25;1030.2;;;16.5;49
45789;BME280;31492;54.856;26.318;2023-04-08T16:41:09;1030.3;;;16.4;49.6
45789;BME280;31492;54.856;26.318;2023-04-08T16:46:09;1030.3;;;16.2;50
45789;BME280;31492;54.856;26.318;2023-04-08T16:51:25;1030.4;;;15.9;50.6
45789;BME280;31492;54.856;26.318;2023-04-08T16:56:35;1030.4;;;15.7;51
45789;BME280;31492;54.856;26.318;2023-04-08T17:01:13;1030.5;;;15.5;51.4
45789;BME280;31492;54.856;26.318;2023-04-08T17:06:04;1030.6;;;15.3;51.9
45789;BME280;31492;54.856;26.318;2023-04-08T17:11:17;1030.6;;;15.1;52
45789;BME280;31492;54.856;26.318;2023-04-08T17:15:57;1030.7;;;14.8;52.5
45789;BME280;31492;54.856;26.318;2023-04-08T17:20:57;1030.7;;;14.6;53.1
45789;BME280;31492;54.856;26.318;2023-04-08T17:26:13;1030.8;;;14.4;53.7
45789;BME280;31492;54.856;26.318;2023-04-08T17:31:09;1030.8;;;14.2;53.9
45789;BME280;31492;54.856;26.318;2023-04-08T17:36:09;1030.9;;;14;54.4
45789;BME280;31492;54.856;26.318;2023-04-08T17:40:57;1031;;;13.9;54.5
45789;BME280;31492;54.856;26.318;2023-04-08T17:45:57;1031;;;13.8;54.8
45789;BME280;31492;54.856;26.318;2023-04-08T17:50:57;1031;;;13.6;55.5
45789;BME280;31492;54.856;26.318;2023-04-08T17:55:57;1031.1;;;13.4;56.2
45789;BME280;31492;54.856;26.318;2023-04-08T18:01:09;1031.1;;;13.3;56.8
45789;BME280;31492;54.856;26.318;2023-04-08T18:06:09;1031.1;;;13.2;56.6
45789;BME280;31492;54.856;26.318;2023-04-08T18:11:05;1031.1;;;13.1;56.9
45789;BME280;31492;54.856;26.318;2023-04-08T18:16:25;1031.1;;;13;56.8
45789;BME280;31492;54.856;26.318;2023-04-08T18:20:57;1031.2;;;12.9;56.8
45789;BME280;31492;54.856;26.318;2023-04-08T18:26:09;1031.2;;;12.9;57
45789;BME280;31492;54.856;26.318;2023-04-08T18:31:25;1031.3;;;12.7;57.3
45789;BME280;31492;54.856;26.318;2023-04-08T18:36:04;1031.3;;;12.6;58.1
45789;BME280;31492;54.856;26.318;2023-04-08T18:41:25;1031.3;;;12.4;58.6
45789;BME280;31492;54.856;26.318;2023-04-08T18:46:25;1031.4;;;12.3;59.3
45789;BME280;31492;54.856;26.318;2023-04-08T18:51:13;1031.4;;;12.2;59.2
45789;BME280;31492;54.856;26.318;2023-04-08T18:55:57;1031.5;;;12.1;59.3
45789;BME280;31492;54.856;26.318;2023-04-08T19:01:17;1031.5;;;12;59.5
45789;BME280;31492;54.856;26.318;2023-04-08T19:06:25;1031.5;;;12;59.4
45789;BME280;31492;54.856;26.318;2023-04-08T19:10:57;1031.5;;;11.9;59.5
45789;BME280;31492;54.856;26.318;2023-04-08T19:15:57;1031.4;;;11.8;59.8
45789;BME280;31492;54.856;26.318;2023-04-08T19:21:11;1031.4;;;11.7;59.9
45789;BME280;31492;54.856;26.318;2023-04-08T19:26:17;1031.4;;;11.6;60.1
45789;BME280;31492;54.856;26.318;2023-04-08T19:30:57;1031.4;;;11.5;60.4
45789;BME280;31492;54.856;26.318;2023-04-08T19:36:05;1031.5;;;11.4;60.7
45789;BME280;31492;54.856;26.318;2023-04-08T19:41:07;1031.5;;;11.3;61.5
45789;BME280;31492;54.856;26.318;2023-04-08T19:45:57;1031.5;;;11.2;61.9
45789;BME280;31492;54.856;26.318;2023-04-08T19:51:03;1031.4;;;11.1;62
45789;BME280;31492;54.856;26.318;2023-04-08T19:55:57;1031.4;;;11.1;62.2
45789;BME280;31492;54.856;26.318;2023-04-08T20:00:57;1031.4;;;11;62.2
45789;BME280;31492;54.856;26.318;2023-04-08T20:06:09;1031.4;;;10.9;62.2
45789;BME280;31492;54.856;26.318;2023-04-08T20:11:39;1031.4;;;10.9;62.5
45789;BME280;31492;54.856;26.318;2023-04-08T20:16:03;1031.4;;;10.9;62.9
45789;BME280;31492;54.856;26.318;2023-04-08T20:21:23;1031.4;;;10.8;63.1
45789;BME280;31492;54.856;26.318;2023-04-08T20:25:57;1031.4;;;10.8;63.3
45789;BME280;31492;54.856;26.318;2023-04-08T20:31:17;1031.4;;;10.7;63.3
45789;BME280;31492;54.856;26.318;2023-04-08T20:35:57;1031.5;;;10.7;63.4
45789;BME280;31492;54.856;26.318;2023-04-08T20:41:05;1031.5;;;10.7;63.5
45789;BME280;31492;54.856;26.318;2023-04-08T20:46:13;1031.5;;;10.7;63.2
45789;BME280;31492;54.856;26.318;2023-04-08T20:51:03;1031.5;;;10.7;63.1
45789;BME280;31492;54.856;26.318;2023-04-08T20:56:23;1031.5;;;10.6;63.6
45789;BME280;31492;54.856;26.318;2023-04-08T21:00:57;1031.5;;;10.5;64.2
45789;BME280;31492;54.856;26.318;2023-04-08T21:05:57;1031.5;;;10.4;64.6
45789;BME280;31492;54.856;26.318;2023-04-08T21:11:11;1031.5;;;10.3;64.7
45789;BME280;31492;54.856;26.318;2023-04-08T21:16:03;1031.5;;;10.2;65
45789;BME280;31492;54.856;26.318;2023-04-08T21:20:57;1031.5;;;10.1;65
45789;BME280;31492;54.856;26.318;2023-04-08T21:25:57;1031.6;;;10.1;65
45789;BME280;31492;54.856;26.318;2023-04-08T21:31:06;1031.6;;;10;65.3
45789;BME280;31492;54.856;26.318;2023-04-08T21:36:25;1031.6;;;10;65.2
45789;BME280;31492;54.856;26.318;2023-04-08T21:41:17;1031.6;;;9.9;65.3
45789;BME280;31492;54.856;26.318;2023-04-08T21:46:15;1031.6;;;9.8;65.6
45789;BME280;31492;54.856;26.318;2023-04-08T21:50:57;1031.6;;;9.8;65
45789;BME280;31492;54.856;26.318;2023-04-08T21:55:57;1031.7;;;9.9;64.9
45789;BME280;31492;54.856;26.318;2023-04-08T22:01:25;1031.7;;;9.9;64.7
45789;BME280;31492;54.856;26.318;2023-04-08T22:05:57;1031.6;;;9.8;64.9
45789;BME280;31492;54.856;26.318;2023-04-08T22:10:57;1031.6;;;9.7;65.5
45789;BME280;31492;54.856;26.318;2023-04-08T22:15:57;1031.6;;;9.5;66.2
45789;BME280;31492;54.856;26.318;2023-04-08T22:20:57;1031.6;;;9.4;66.2
45789;BME280;31492;54.856;26.318;2023-04-08T22:26:13;1031.7;;;9.3;66.3
45789;BME280;31492;54.856;26.318;2023-04-08T22:30:57;1031.7;;;9.2;66.3
45789;BME280;31492;54.856;26.318;2023-04-08T22:35:57;1031.6;;;9.2;66.3
45789;BME280;31492;54.856;26.318;2023-04-08T22:40:57;1031.6;;;9.2;65.6
45789;BME280;31492;54.856;26.318;2023-04-08T22:46:23;1031.6;;;9.2;65.4
45789;BME280;31492;54.856;26.318;2023-04-08T22:51:13;1031.6;;;9.2;65.6
45789;BME280;31492;54.856;26.318;2023-04-08T22:56:17;1031.6;;;9.2;65.8
45789;BME280;31492;54.856;26.318;2023-04-08T23:01:10;1031.6;;;9;66.4
45789;BME280;31492;54.856;26.318;2023-04-08T23:05:57;1031.7;;;9;66.4
45789;BME280;31492;54.856;26.318;2023-04-08T23:11:39;1031.7;;;8.9;66.3
45789;BME280;31492;54.856;26.318;2023-04-08T23:16:11;1031.6;;;8.9;66.3
45789;BME280;31492;54.856;26.318;2023-04-08T23:20:57;1031.6;;;8.9;66.1
45789;BME280;31492;54.856;26.318;2023-04-08T23:26:37;1031.6;;;8.9;66.1
45789;BME280;31492;54.856;26.318;2023-04-08T23:31:09;1031.6;;;8.8;66.3
45789;BME280;31492;54.856;26.318;2023-04-08T23:36:25;1031.6;;;8.8;66.2
45789;BME280;31492;54.856;26.318;2023-04-08T23:41:06;1031.6;;;8.8;65.9
45789;BME280;31492;54.856;26.318;2023-04-08T23:45:57;1031.6;;;8.8;65.8
45789;BME280;31492;54.856;26.318;2023-04-08T23:51:09;1031.5;;;8.7;65.4
45789;BME280;31492;54.856;26.318;2023-04-08T23:56:02;1031.5;;;8.6;65.7
